createdAt,value
2019-04-01T00:00:14.266Z,0
2019-04-01T00:03:50.779Z,0
2019-04-01T00:06:15.083Z,0
2019-04-01T00:07:27.262Z,0
2019-04-01T00:08:39.450Z,0
2019-04-01T00:09:51.727Z,0
2019-04-01T00:11:03.866Z,0
2019-04-01T00:12:16.195Z,0
2019-04-01T00:13:28.233Z,0
2019-04-01T00:14:40.434Z,0
2019-04-01T00:15:52.708Z,0
2019-04-01T00:18:17.029Z,0
2019-04-01T00:19:29.316Z,0
2019-04-01T00:20:41.428Z,0
2019-04-01T00:21:53.619Z,0
2019-04-01T00:23:05.847Z,0
2019-04-01T00:24:17.985Z,0
2019-04-01T00:25:30.217Z,0
2019-04-01T00:26:42.393Z,0
2019-04-01T00:27:54.584Z,0
2019-04-01T00:29:06.768Z,0
2019-04-01T00:30:18.966Z,0
2019-04-01T00:31:31.451Z,0
2019-04-01T00:33:55.660Z,0
2019-04-01T00:35:07.753Z,0
2019-04-01T00:36:19.965Z,0
2019-04-01T00:37:32.158Z,0
2019-04-01T00:38:44.457Z,0
2019-04-01T00:39:56.551Z,0
2019-04-01T00:42:21.083Z,0
2019-04-01T00:44:45.319Z,0
2019-04-01T00:45:57.542Z,0
2019-04-01T00:47:09.730Z,0
2019-04-01T00:48:21.910Z,0
2019-04-01T00:49:39.044Z,0
2019-04-01T00:50:46.288Z,0
2019-04-01T00:51:58.577Z,0
2019-04-01T00:53:10.765Z,0
2019-04-01T00:54:22.871Z,0
2019-04-01T00:55:35.098Z,0
2019-04-01T00:56:47.279Z,0
2019-04-01T00:59:11.749Z,0
2019-04-01T01:01:36.078Z,0
2019-04-01T01:02:48.255Z,0
2019-04-01T01:04:00.463Z,0
2019-04-01T01:06:24.929Z,0
2019-04-01T01:07:37.047Z,0
2019-04-01T01:08:49.225Z,0
2019-04-01T01:10:01.558Z,0
2019-04-01T01:11:13.660Z,0
2019-04-01T01:12:25.801Z,0
2019-04-01T01:16:02.475Z,0
2019-04-01T01:17:14.589Z,0
2019-04-01T01:18:26.934Z,0
2019-04-01T01:19:39.015Z,0
2019-04-01T01:20:51.307Z,0
2019-04-01T01:22:03.424Z,0
2019-04-01T01:23:15.630Z,0
2019-04-01T01:24:27.751Z,0
2019-04-01T01:28:04.368Z,0
2019-04-01T01:30:28.715Z,0
2019-04-01T01:31:40.924Z,0
2019-04-01T01:32:53.117Z,0
2019-04-01T01:34:05.397Z,0
2019-04-01T01:35:17.479Z,0
2019-04-01T01:36:29.793Z,0
2019-04-01T01:38:54.092Z,0
2019-04-01T01:40:06.329Z,0
2019-04-01T01:41:18.482Z,0
2019-04-01T01:42:30.706Z,0
2019-04-01T01:43:42.893Z,0
2019-04-01T01:44:55.110Z,0
2019-04-01T01:46:07.270Z,0
2019-04-01T01:47:19.427Z,0
2019-04-01T01:50:56.097Z,0
2019-04-01T01:52:08.231Z,0
2019-04-01T01:53:20.575Z,0
2019-04-01T01:55:44.816Z,0
2019-04-01T01:56:56.985Z,0
2019-04-01T01:58:09.169Z,0
2019-04-01T01:59:21.413Z,0
2019-04-01T02:00:33.674Z,0
2019-04-01T02:01:45.828Z,0
2019-04-01T02:02:57.943Z,0
2019-04-01T02:04:10.144Z,0
2019-04-01T02:05:22.334Z,0
2019-04-01T02:06:34.670Z,0
2019-04-01T02:08:58.908Z,0
2019-04-01T02:10:11.127Z,0
2019-04-01T02:11:23.324Z,0
2019-04-01T02:12:35.491Z,0
2019-04-01T02:13:47.689Z,0
2019-04-01T02:16:12.231Z,0
2019-04-01T02:17:24.352Z,0
2019-04-01T02:18:36.839Z,0
2019-04-01T02:21:01.029Z,0
2019-04-01T02:22:13.061Z,0
2019-04-01T02:23:25.238Z,0
2019-04-01T02:28:14.103Z,0
2019-04-01T02:29:26.385Z,0
2019-04-01T02:30:38.416Z,0
2019-04-01T02:31:50.598Z,0
2019-04-01T02:33:02.806Z,0
2019-04-01T02:34:14.987Z,0
2019-04-01T02:35:27.372Z,0
2019-04-01T02:36:39.500Z,0
2019-04-01T02:37:51.599Z,0
2019-04-01T02:40:15.966Z,0
2019-04-01T02:41:28.144Z,0
2019-04-01T02:42:40.378Z,0
2019-04-01T02:43:52.557Z,0
2019-04-01T02:45:04.986Z,0
2019-04-01T02:46:16.936Z,0
2019-04-01T02:47:29.191Z,0
2019-04-01T02:48:41.354Z,0
2019-04-01T02:49:53.583Z,0
2019-04-01T02:51:05.802Z,0
2019-04-01T02:52:18.003Z,0
2019-04-01T02:53:30.126Z,0
2019-04-01T02:54:42.342Z,0
2019-04-01T02:55:54.494Z,0
2019-04-01T02:57:06.714Z,0
2019-04-01T02:58:18.975Z,0
2019-04-01T02:59:31.076Z,0
2019-04-01T03:00:43.322Z,0
2019-04-01T03:04:19.832Z,0
2019-04-01T03:05:32.165Z,0
2019-04-01T03:06:44.243Z,0
2019-04-01T03:07:56.449Z,0
2019-04-01T03:09:08.712Z,0
2019-04-01T03:11:33.004Z,0
2019-04-01T03:12:45.281Z,0
2019-04-01T03:15:09.608Z,0
2019-04-01T03:16:21.982Z,0
2019-04-01T03:17:33.969Z,0
2019-04-01T03:18:46.177Z,0
2019-04-01T03:21:10.551Z,0
2019-04-01T03:22:22.809Z,0
2019-04-01T03:23:34.932Z,0
2019-04-01T03:24:47.134Z,0
2019-04-01T03:27:11.511Z,0
2019-04-01T03:28:23.772Z,0
2019-04-01T03:30:48.576Z,0
2019-04-01T03:32:00.292Z,0
2019-04-01T03:33:12.529Z,0
2019-04-01T03:34:24.911Z,0
2019-04-01T03:35:36.894Z,0
2019-04-01T03:36:49.087Z,0
2019-04-01T03:39:13.491Z,0
2019-04-01T03:40:25.657Z,0
2019-04-01T03:41:37.945Z,0
2019-04-01T03:42:50.064Z,0
2019-04-01T03:44:02.238Z,0
2019-04-01T03:45:14.432Z,0
2019-04-01T03:46:26.642Z,0
2019-04-01T03:47:38.871Z,0
2019-04-01T03:48:51.172Z,0
2019-04-01T03:50:03.405Z,0
2019-04-01T03:51:15.438Z,0
2019-04-01T03:52:27.598Z,0
2019-04-01T03:54:51.987Z,0
2019-04-01T03:56:04.205Z,0
2019-04-01T03:57:16.379Z,0
2019-04-01T03:58:28.560Z,0
2019-04-01T03:59:40.760Z,0
2019-04-01T04:02:05.266Z,0
2019-04-01T04:03:17.391Z,0
2019-04-01T04:04:29.598Z,0
2019-04-01T04:05:41.713Z,0
2019-04-01T04:06:54.005Z,0
2019-04-01T04:08:06.105Z,0
2019-04-01T04:09:18.302Z,0
2019-04-01T04:10:30.523Z,0
2019-04-01T04:11:42.734Z,0
2019-04-01T04:14:07.157Z,0
2019-04-01T04:15:19.270Z,0
2019-04-01T04:16:33.554Z,0
2019-04-01T04:17:46.583Z,0
2019-04-01T04:18:58.674Z,0
2019-04-01T04:20:08.146Z,0
2019-04-01T04:21:20.577Z,0
2019-04-01T04:22:32.466Z,0
2019-04-01T04:23:44.643Z,0
2019-04-01T04:24:56.814Z,0
2019-04-01T04:27:21.221Z,0
2019-04-01T04:28:33.404Z,0
2019-04-01T04:29:45.599Z,0
2019-04-01T04:30:57.795Z,0
2019-04-01T04:32:10.209Z,0
2019-04-01T04:33:22.280Z,0
2019-04-01T04:34:34.409Z,0
2019-04-01T04:35:46.644Z,0
2019-04-01T04:38:10.954Z,0
2019-04-01T04:39:23.237Z,0
2019-04-01T04:40:35.485Z,0
2019-04-01T04:41:47.546Z,0
2019-04-01T04:42:59.749Z,0
2019-04-01T04:44:11.927Z,0
2019-04-01T04:45:24.207Z,0
2019-04-01T04:46:36.389Z,0
2019-04-01T04:47:48.502Z,0
2019-04-01T04:49:00.710Z,0
2019-04-01T04:50:13.026Z,0
2019-04-01T04:52:37.282Z,0
2019-04-01T04:53:49.462Z,0
2019-04-01T04:55:01.769Z,0
2019-04-01T04:57:26.116Z,0
2019-04-01T04:58:38.249Z,0
2019-04-01T04:59:50.544Z,0
2019-04-01T05:01:02.753Z,0
2019-04-01T05:02:14.849Z,0
2019-04-01T05:04:39.212Z,5
2019-04-01T05:05:51.497Z,5
2019-04-01T05:07:05.824Z,5
2019-04-01T05:08:15.878Z,5
2019-04-01T05:09:28.013Z,5
2019-04-01T05:11:52.467Z,11
2019-04-01T05:13:04.599Z,11
2019-04-01T05:14:16.782Z,11
2019-04-01T05:15:29.036Z,11
2019-04-01T05:16:41.419Z,16
2019-04-01T05:17:53.451Z,16
2019-04-01T05:19:05.629Z,16
2019-04-01T05:20:17.743Z,16
2019-04-01T05:21:29.969Z,22
2019-04-01T05:22:42.251Z,22
2019-04-01T05:23:54.323Z,28
2019-04-01T05:28:43.098Z,39
2019-04-01T05:29:55.360Z,39
2019-04-01T05:31:07.605Z,39
2019-04-01T05:32:19.722Z,39
2019-04-01T05:33:31.882Z,39
2019-04-01T05:35:56.263Z,45
2019-04-01T05:37:08.461Z,45
2019-04-01T05:40:45.657Z,56
2019-04-01T05:41:57.886Z,56
2019-04-01T05:43:10.361Z,61
2019-04-01T05:44:21.618Z,78
2019-04-01T05:45:33.926Z,106
2019-04-01T05:47:58.201Z,118
2019-04-01T05:49:10.416Z,118
2019-04-01T05:51:34.773Z,129
2019-04-01T05:52:47.068Z,135
2019-04-01T05:55:11.395Z,146
2019-04-01T05:56:23.628Z,157
2019-04-01T05:57:35.880Z,180
2019-04-01T05:58:48.048Z,202
2019-04-01T06:00:00.173Z,208
2019-04-01T06:01:12.327Z,219
2019-04-01T06:03:36.734Z,230
2019-04-01T06:04:48.901Z,241
2019-04-01T06:06:01.272Z,253
2019-04-01T06:07:13.310Z,253
2019-04-01T06:09:37.723Z,264
2019-04-01T06:10:49.964Z,270
2019-04-01T06:12:02.186Z,275
2019-04-01T06:13:14.366Z,286
2019-04-01T06:14:26.463Z,292
2019-04-01T06:15:38.708Z,298
2019-04-01T06:16:50.853Z,315
2019-04-01T06:19:15.254Z,326
2019-04-01T06:20:27.437Z,331
2019-04-01T06:21:39.673Z,343
2019-04-01T06:22:51.986Z,371
2019-04-01T06:24:04.089Z,382
2019-04-01T06:26:29.155Z,427
2019-04-01T06:27:40.581Z,433
2019-04-01T06:28:52.800Z,438
2019-04-01T06:30:05.026Z,444
2019-04-01T06:31:17.177Z,466
2019-04-01T06:33:41.566Z,495
2019-04-01T06:34:53.762Z,511
2019-04-01T06:36:05.955Z,523
2019-04-01T06:37:18.636Z,556
2019-04-01T06:39:42.526Z,568
2019-04-01T06:40:54.888Z,596
2019-04-01T06:42:07.016Z,590
2019-04-01T06:43:19.167Z,601
2019-04-01T06:44:31.338Z,613
2019-04-01T06:45:43.504Z,635
2019-04-01T06:46:55.741Z,652
2019-04-01T06:48:07.897Z,680
2019-04-01T06:49:20.179Z,691
2019-04-01T06:50:32.302Z,703
2019-04-01T06:52:56.659Z,714
2019-04-01T06:54:08.863Z,736
2019-04-01T06:55:21.065Z,742
2019-04-01T06:56:33.264Z,748
2019-04-01T06:57:45.495Z,759
2019-04-01T06:58:57.710Z,810
2019-04-01T07:00:09.863Z,832
2019-04-01T07:01:22.045Z,798
2019-04-01T07:03:46.520Z,860
2019-04-01T07:04:58.595Z,860
2019-04-01T07:07:23.055Z,894
2019-04-01T07:08:35.256Z,871
2019-04-01T07:09:47.418Z,849
2019-04-01T07:10:59.552Z,956
2019-04-01T07:12:11.837Z,967
2019-04-01T07:15:48.407Z,973
2019-04-01T07:17:00.530Z,984
2019-04-01T07:18:12.895Z,978
2019-04-01T07:19:24.906Z,990
2019-04-01T07:20:37.132Z,978
2019-04-01T07:21:49.299Z,1035
2019-04-01T07:23:01.587Z,1012
2019-04-01T07:24:13.680Z,1046
2019-04-01T07:25:25.871Z,1102
2019-04-01T07:26:38.209Z,1091
2019-04-01T07:27:50.322Z,1136
2019-04-01T07:29:02.452Z,1119
2019-04-01T07:30:14.655Z,1158
2019-04-01T07:31:26.859Z,1164
2019-04-01T07:33:51.319Z,1203
2019-04-01T07:35:03.447Z,1231
2019-04-01T07:36:15.622Z,1231
2019-04-01T07:39:54.758Z,1215
2019-04-01T07:41:04.415Z,1243
2019-04-01T07:42:18.642Z,1248
2019-04-01T07:43:28.776Z,1215
2019-04-01T07:44:41.062Z,1271
2019-04-01T07:45:53.166Z,1316
2019-04-01T07:47:05.448Z,1333
2019-04-01T07:48:17.648Z,1299
2019-04-01T07:49:29.769Z,1338
2019-04-01T07:50:41.958Z,1350
2019-04-01T07:51:54.218Z,1338
2019-04-01T07:53:06.387Z,1372
2019-04-01T07:55:30.859Z,1378
2019-04-01T07:56:42.935Z,1400
2019-04-01T07:57:55.137Z,1445
2019-04-01T07:59:07.633Z,1395
2019-04-01T08:00:19.596Z,1383
2019-04-01T08:03:56.062Z,1411
2019-04-01T08:05:08.395Z,1423
2019-04-01T08:07:32.669Z,1344
2019-04-01T08:08:44.960Z,1411
2019-04-01T08:09:57.086Z,1440
2019-04-01T08:11:09.229Z,1496
2019-04-01T08:12:21.447Z,1473
2019-04-01T08:13:33.894Z,1479
2019-04-01T08:15:58.223Z,1428
2019-04-01T08:17:10.209Z,1473
2019-04-01T08:18:22.384Z,1496
2019-04-01T08:19:34.587Z,1541
2019-04-01T08:21:59.052Z,1575
2019-04-01T08:23:11.227Z,1603
2019-04-01T08:24:23.369Z,1676
2019-04-01T08:27:59.946Z,1591
2019-04-01T08:29:12.168Z,1603
2019-04-01T08:30:24.337Z,1738
2019-04-01T08:31:36.701Z,1665
2019-04-01T08:34:01.078Z,1580
2019-04-01T08:36:25.302Z,1676
2019-04-01T08:41:14.286Z,1726
2019-04-01T08:42:26.358Z,1777
2019-04-01T08:43:38.584Z,1828
2019-04-01T08:46:02.883Z,1749
2019-04-01T08:48:27.248Z,1805
2019-04-01T08:49:39.549Z,1873
2019-04-01T08:52:03.984Z,1901
2019-04-01T08:53:16.609Z,1918
2019-04-01T08:55:40.502Z,1935
2019-04-01T08:56:52.624Z,1940
2019-04-01T08:58:04.778Z,1929
2019-04-01T09:00:29.171Z,1878
2019-04-01T09:05:17.950Z,2081
2019-04-01T09:07:42.445Z,2075
2019-04-01T09:10:06.820Z,2109
2019-04-01T09:12:31.170Z,2115
2019-04-01T09:17:19.958Z,2070
2019-04-01T09:19:44.453Z,2075
2019-04-01T09:22:08.655Z,2064
2019-04-01T09:24:33.082Z,2137
2019-04-01T09:25:45.234Z,2131
2019-04-01T09:29:21.985Z,2165
2019-04-01T09:31:46.327Z,2188
2019-04-01T09:34:10.600Z,2154
2019-04-01T09:36:35.346Z,2199
2019-04-01T09:40:11.638Z,2182
2019-04-01T09:41:23.876Z,2131
2019-04-01T09:43:48.209Z,2199
2019-04-01T09:46:12.581Z,2306
2019-04-01T09:48:36.996Z,2131
2019-04-01T09:49:49.309Z,2092
2019-04-01T09:53:25.694Z,2233
2019-04-01T09:55:53.057Z,2221
2019-04-01T09:57:04.810Z,2176
2019-04-01T09:58:17.134Z,2300
2019-04-01T09:59:29.856Z,2250
2019-04-01T10:00:38.860Z,2221
2019-04-01T10:01:51.065Z,2255
2019-04-01T10:05:27.808Z,2306
2019-04-01T10:06:40.650Z,2368
2019-04-01T10:07:52.127Z,2278
2019-04-01T10:09:07.376Z,2317
2019-04-01T10:10:19.487Z,2379
2019-04-01T10:11:28.628Z,2306
2019-04-01T10:12:40.793Z,2182
2019-04-01T10:16:17.448Z,2227
2019-04-01T10:17:29.696Z,2356
2019-04-01T10:19:53.948Z,2266
2019-04-01T10:21:06.146Z,2334
2019-04-01T10:22:18.354Z,2154
2019-04-01T10:24:42.729Z,2227
2019-04-01T10:28:19.403Z,2356
2019-04-01T10:29:31.505Z,2373
2019-04-01T10:30:43.757Z,2328
2019-04-01T10:31:55.964Z,2373
2019-04-01T10:34:20.553Z,2244
2019-04-01T10:36:45.103Z,2323
2019-04-01T10:37:56.863Z,2306
2019-04-01T10:40:21.395Z,2283
2019-04-01T10:41:33.517Z,2272
2019-04-01T10:43:58.066Z,2362
2019-04-01T10:45:10.044Z,2356
2019-04-01T10:46:22.231Z,2311
2019-04-01T10:48:46.627Z,2300
2019-04-01T10:52:23.200Z,2351
2019-04-01T10:53:35.643Z,2306
2019-04-01T10:54:47.715Z,2238
2019-04-01T10:55:59.893Z,2368
2019-04-01T10:58:24.299Z,2266
2019-04-01T10:59:36.453Z,2373
2019-04-01T11:00:48.650Z,2356
2019-04-01T11:05:37.373Z,2205
2019-04-01T11:08:01.901Z,2255
2019-04-01T11:09:14.146Z,2272
2019-04-01T11:10:26.154Z,2385
2019-04-01T11:12:50.537Z,2261
2019-04-01T11:14:02.719Z,2278
2019-04-01T11:17:39.828Z,2340
2019-04-01T11:20:03.704Z,2323
2019-04-01T11:22:28.087Z,2266
2019-04-01T11:24:52.504Z,2266
2019-04-01T11:26:04.670Z,2300
2019-04-01T11:29:41.267Z,2176
2019-04-01T11:30:53.644Z,2205
2019-04-01T11:32:05.798Z,2188
2019-04-01T11:33:17.861Z,2199
2019-04-01T11:34:30.086Z,2221
2019-04-01T11:36:54.525Z,2131
2019-04-01T11:41:43.246Z,1929
2019-04-01T11:44:07.691Z,466
2019-04-01T11:46:32.010Z,343
2019-04-01T11:47:44.251Z,326
2019-04-01T11:48:56.461Z,315
2019-04-01T11:50:08.607Z,309
2019-04-01T11:53:45.188Z,298
2019-04-01T11:54:57.361Z,303
2019-04-01T11:56:09.562Z,298
2019-04-01T11:57:21.752Z,298
2019-04-01T11:58:34.064Z,292
2019-04-01T12:00:58.338Z,286
2019-04-01T12:05:47.158Z,275
2019-04-01T12:06:59.432Z,275
2019-04-01T12:08:11.579Z,270
2019-04-01T12:10:35.896Z,264
2019-04-01T12:11:48.105Z,264
2019-04-01T12:13:00.294Z,258
2019-04-01T12:17:49.195Z,247
2019-04-01T12:19:01.318Z,247
2019-04-01T12:20:13.538Z,247
2019-04-01T12:22:38.315Z,241
2019-04-01T12:25:02.243Z,236
2019-04-01T12:26:14.498Z,236
2019-04-01T12:29:51.098Z,230
2019-04-01T12:31:03.253Z,225
2019-04-01T12:32:15.974Z,225
2019-04-01T12:34:39.899Z,225
2019-04-01T12:35:52.097Z,219
2019-04-01T12:37:11.266Z,219
2019-04-01T12:41:53.085Z,213
2019-04-01T12:46:41.745Z,208
2019-04-01T12:47:54.023Z,202
2019-04-01T12:49:06.194Z,202
2019-04-01T12:53:54.938Z,202
2019-04-01T12:56:19.504Z,202
2019-04-01T12:58:43.708Z,196
2019-04-01T13:01:08.181Z,196
2019-04-01T13:05:56.881Z,191
2019-04-01T13:08:21.413Z,185
2019-04-01T13:10:45.782Z,185
2019-04-01T13:13:10.054Z,180
2019-04-01T13:14:22.309Z,180
2019-04-01T13:17:58.923Z,180
2019-04-01T13:20:23.332Z,174
2019-04-01T13:21:35.714Z,174
2019-04-01T13:22:47.628Z,174
2019-04-01T13:23:59.797Z,174
2019-04-01T13:25:12.084Z,174
2019-04-01T13:30:00.924Z,168
2019-04-01T13:31:13.053Z,168
2019-04-01T13:32:25.330Z,168
2019-04-01T13:34:49.547Z,163
2019-04-01T13:37:14.011Z,163
2019-04-01T13:38:26.181Z,163
2019-04-01T13:42:03.387Z,157
2019-04-01T13:44:27.237Z,157
2019-04-01T13:46:51.697Z,157
2019-04-01T13:49:16.010Z,157
2019-04-01T13:52:52.490Z,151
2019-04-01T13:54:04.679Z,151
2019-04-01T13:55:16.951Z,151
2019-04-01T13:56:29.063Z,151
2019-04-01T13:57:41.384Z,151
2019-04-01T13:58:53.564Z,151
2019-04-01T14:00:05.738Z,146
2019-04-01T14:01:17.851Z,146
2019-04-01T14:06:06.634Z,146
2019-04-01T14:07:19.905Z,146
2019-04-01T14:08:31.539Z,146
2019-04-01T14:09:43.911Z,146
2019-04-01T14:10:56.082Z,146
2019-04-01T14:12:07.643Z,140
2019-04-01T14:13:19.814Z,140
2019-04-01T14:18:08.678Z,140
2019-04-01T14:19:20.879Z,140
2019-04-01T14:20:33.179Z,140
2019-04-01T14:22:57.521Z,135
2019-04-01T14:24:09.624Z,135
2019-04-01T14:25:21.819Z,135
2019-04-01T14:26:33.946Z,135
2019-04-01T14:30:10.545Z,135
2019-04-01T14:32:35.137Z,135
2019-04-01T14:33:47.101Z,135
2019-04-01T14:34:59.299Z,135
2019-04-01T14:36:11.488Z,129
2019-04-01T14:37:23.767Z,129
2019-04-01T14:41:00.364Z,129
2019-04-01T14:42:12.643Z,129
2019-04-01T14:43:24.767Z,129
2019-04-01T14:44:36.969Z,129
2019-04-01T14:45:49.079Z,129
2019-04-01T14:47:01.372Z,129
2019-04-01T14:49:29.179Z,129
2019-04-01T14:50:37.835Z,129
2019-04-01T14:53:02.445Z,129
2019-04-01T14:54:14.510Z,123
2019-04-01T14:56:38.875Z,123
2019-04-01T14:59:03.310Z,123
2019-04-01T15:00:15.532Z,123
2019-04-01T15:01:27.641Z,123
2019-04-01T15:05:04.261Z,123
2019-04-01T15:06:16.520Z,123
2019-04-01T15:08:40.886Z,123
2019-04-01T15:09:52.977Z,118
2019-04-01T15:11:05.190Z,118
2019-04-01T15:13:29.775Z,118
2019-04-01T15:18:18.436Z,118
2019-04-01T15:19:30.544Z,118
2019-04-01T15:20:42.795Z,112
2019-04-01T15:23:07.095Z,112
2019-04-01T15:25:31.514Z,112
2019-04-01T15:30:20.399Z,112
2019-04-01T15:32:44.959Z,112
2019-04-01T15:35:09.136Z,106
2019-04-01T15:36:21.321Z,106
2019-04-01T15:37:33.455Z,106
2019-04-01T15:38:45.745Z,106
2019-04-01T15:41:10.047Z,106
2019-04-01T15:42:22.320Z,106
2019-04-01T15:45:58.819Z,106
2019-04-01T15:47:11.025Z,106
2019-04-01T15:48:23.188Z,106
2019-04-01T15:49:35.432Z,106
2019-04-01T15:53:12.154Z,101
2019-04-01T15:54:24.303Z,101
2019-04-01T15:55:36.411Z,101
2019-04-01T15:56:48.658Z,101
2019-04-01T15:58:00.840Z,101
2019-04-01T15:59:12.955Z,101
2019-04-01T16:00:25.206Z,101
2019-04-01T16:01:37.358Z,101
2019-04-01T16:02:49.534Z,95
2019-04-01T16:05:13.945Z,95
2019-04-01T16:06:26.246Z,95
2019-04-01T16:08:50.707Z,95
2019-04-01T16:10:02.721Z,95
2019-04-01T16:11:14.966Z,95
2019-04-01T16:13:39.315Z,90
2019-04-01T16:14:51.592Z,90
2019-04-01T16:18:28.230Z,90
2019-04-01T16:19:40.277Z,90
2019-04-01T16:20:52.561Z,90
2019-04-01T16:23:16.943Z,84
2019-04-01T16:24:29.054Z,84
2019-04-01T16:25:41.274Z,84
2019-04-01T16:26:53.516Z,84
2019-04-01T16:29:17.925Z,84
2019-04-01T16:30:35.049Z,84
2019-04-01T16:31:42.244Z,78
2019-04-01T16:32:59.167Z,78
2019-04-01T16:34:06.619Z,78
2019-04-01T16:35:18.825Z,78
2019-04-01T16:36:35.179Z,78
2019-04-01T16:37:43.208Z,78
2019-04-01T16:40:07.654Z,78
2019-04-01T16:41:19.934Z,73
2019-04-01T16:42:33.340Z,73
2019-04-01T16:44:56.460Z,73
2019-04-01T16:47:20.808Z,73
2019-04-01T16:48:33.048Z,73
2019-04-01T16:49:45.145Z,67
2019-04-01T16:53:21.743Z,67
2019-04-01T16:54:34.360Z,67
2019-04-01T16:55:46.320Z,67
2019-04-01T16:56:58.440Z,67
2019-04-01T16:58:10.531Z,61
2019-04-01T16:59:22.706Z,61
2019-04-01T17:01:47.123Z,61
2019-04-01T17:06:36.016Z,56
2019-04-01T17:07:48.151Z,56
2019-04-01T17:09:00.393Z,56
2019-04-01T17:10:12.640Z,56
2019-04-01T17:11:24.726Z,50
2019-04-01T17:12:36.866Z,50
2019-04-01T17:13:49.048Z,50
2019-04-01T17:16:13.531Z,50
2019-04-01T17:18:37.944Z,45
2019-04-01T17:21:02.300Z,45
2019-04-01T17:22:14.419Z,45
2019-04-01T17:23:26.659Z,45
2019-04-01T17:25:51.124Z,45
2019-04-01T17:27:03.209Z,39
2019-04-01T17:30:39.961Z,33
2019-04-01T17:31:52.305Z,33
2019-04-01T17:33:04.231Z,33
2019-04-01T17:35:28.568Z,28
2019-04-01T17:36:40.753Z,28
2019-04-01T17:37:52.972Z,28
2019-04-01T17:40:17.367Z,22
2019-04-01T17:42:41.974Z,22
2019-04-01T17:45:06.200Z,16
2019-04-01T17:47:30.512Z,16
2019-04-01T17:49:54.903Z,16
2019-04-01T17:51:07.103Z,11
2019-04-01T17:52:19.293Z,11
2019-04-01T17:53:31.599Z,11
2019-04-01T17:54:43.762Z,11
2019-04-01T17:57:08.272Z,5
2019-04-01T17:58:20.338Z,5
2019-04-01T17:59:32.468Z,5
2019-04-01T18:00:44.755Z,5
2019-04-01T18:01:57.003Z,5
2019-04-01T18:04:21.270Z,5
2019-04-01T18:05:33.435Z,0
2019-04-01T18:06:45.792Z,0
2019-04-01T18:07:58.003Z,0
2019-04-01T18:09:10.147Z,0
2019-04-01T18:10:22.226Z,0
2019-04-01T18:11:34.429Z,0
2019-04-01T18:12:46.688Z,0
2019-04-01T18:13:58.820Z,0
2019-04-01T18:15:11.015Z,0
2019-04-01T18:18:47.597Z,0
2019-04-01T18:21:12.129Z,0
2019-04-01T18:23:36.476Z,0
2019-04-01T18:24:48.562Z,0
2019-04-01T18:26:00.895Z,0
2019-04-01T18:27:12.939Z,0
2019-04-01T18:29:37.543Z,0
2019-04-01T18:30:49.605Z,0
2019-04-01T18:32:03.747Z,0
2019-04-01T18:33:15.968Z,0
2019-04-01T18:34:27.672Z,0
2019-04-01T18:35:38.392Z,0
2019-04-01T18:36:50.701Z,0
2019-04-01T18:38:02.745Z,0
2019-04-01T18:39:14.903Z,0
2019-04-01T18:42:51.561Z,0
2019-04-01T18:45:16.003Z,0
2019-04-01T18:47:40.331Z,0
2019-04-01T18:50:04.759Z,0
2019-04-01T18:52:29.033Z,0
2019-04-01T18:53:41.435Z,0
2019-04-01T18:54:53.496Z,0
2019-04-01T18:56:05.709Z,0
2019-04-01T18:57:17.997Z,0
2019-04-01T18:59:42.297Z,0
2019-04-01T19:00:54.396Z,0
2019-04-01T19:02:06.656Z,0
2019-04-01T19:05:43.296Z,0
2019-04-01T19:09:19.944Z,0
2019-04-01T19:10:31.958Z,0
2019-04-01T19:11:44.226Z,0
2019-04-01T19:14:08.600Z,0
2019-04-01T19:15:20.820Z,0
2019-04-01T19:18:57.475Z,0
2019-04-01T19:20:09.684Z,0
2019-04-01T19:21:21.901Z,0
2019-04-01T19:22:33.975Z,0
2019-04-01T19:23:46.111Z,0
2019-04-01T19:24:58.311Z,0
2019-04-01T19:26:10.535Z,0
2019-04-01T19:27:22.828Z,0
2019-04-01T19:29:47.182Z,0
2019-04-01T19:30:59.288Z,0
2019-04-01T19:33:23.817Z,0
2019-04-01T19:34:35.862Z,0
2019-04-01T19:35:48.133Z,0
2019-04-01T19:37:00.372Z,0
2019-04-01T19:38:12.503Z,0
2019-04-01T19:39:24.735Z,0
2019-04-01T19:40:36.830Z,0
2019-04-01T19:43:01.326Z,0
2019-04-01T19:45:25.731Z,0
2019-04-01T19:46:37.848Z,0
2019-04-01T19:47:50.017Z,0
2019-04-01T19:49:02.378Z,0
2019-04-01T19:50:14.402Z,0
2019-04-01T19:51:31.077Z,0
2019-04-01T19:53:55.448Z,0
2019-04-01T19:55:03.436Z,0
2019-04-01T19:56:15.398Z,0
2019-04-01T19:57:27.714Z,0
2019-04-01T19:59:51.997Z,0
2019-04-01T20:01:04.239Z,0
2019-04-01T20:02:16.457Z,0
2019-04-01T20:05:52.936Z,0
2019-04-01T20:07:05.333Z,0
2019-04-01T20:08:17.321Z,0
2019-04-01T20:09:29.609Z,0
2019-04-01T20:10:41.835Z,0
2019-04-01T20:11:53.952Z,0
2019-04-01T20:14:18.514Z,0
2019-04-01T20:15:30.629Z,0
2019-04-01T20:16:42.712Z,0
2019-04-01T20:17:55.050Z,0
2019-04-01T20:19:07.121Z,0
2019-04-01T20:20:19.301Z,0
2019-04-01T20:21:31.549Z,0
2019-04-01T20:22:43.682Z,0
2019-04-01T20:23:55.862Z,0
2019-04-01T20:25:08.185Z,0
2019-04-01T20:26:20.297Z,0
2019-04-01T20:29:56.897Z,0
2019-04-01T20:31:09.093Z,0
2019-04-01T20:32:21.289Z,0
2019-04-01T20:33:33.491Z,0
2019-04-01T20:34:45.706Z,0
2019-04-01T20:35:57.889Z,0
2019-04-01T20:38:22.211Z,0
2019-04-01T20:41:58.763Z,0
2019-04-01T20:43:10.957Z,0
2019-04-01T20:45:35.536Z,0
2019-04-01T20:46:47.659Z,0
2019-04-01T20:47:59.807Z,0
2019-04-01T20:50:24.128Z,0
2019-04-01T20:51:36.420Z,0
2019-04-01T20:54:00.810Z,0
2019-04-01T20:55:12.973Z,0
2019-04-01T20:56:25.209Z,0
2019-04-01T20:57:37.360Z,0
2019-04-01T20:58:49.545Z,0
2019-04-01T21:00:01.776Z,0
2019-04-01T21:02:26.056Z,0
2019-04-01T21:03:38.511Z,0
2019-04-01T21:06:02.646Z,0
2019-04-01T21:07:14.903Z,0
2019-04-01T21:08:27.127Z,0
2019-04-01T21:10:51.489Z,0
2019-04-01T21:12:03.620Z,0
2019-04-01T21:13:16.216Z,0
2019-04-01T21:14:28.016Z,0
2019-04-01T21:15:40.397Z,0
2019-04-01T21:16:52.383Z,0
2019-04-01T21:18:04.646Z,0
2019-04-01T21:19:17.040Z,0
2019-04-01T21:20:28.963Z,0
2019-04-01T21:21:41.327Z,0
2019-04-01T21:22:53.470Z,0
2019-04-01T21:24:05.626Z,0
2019-04-01T21:25:17.803Z,0
2019-04-01T21:26:29.937Z,0
2019-04-01T21:27:42.120Z,0
2019-04-01T21:31:18.728Z,0
2019-04-01T21:32:30.951Z,0
2019-04-01T21:33:43.259Z,0
2019-04-01T21:34:55.313Z,0
2019-04-01T21:36:07.509Z,0
2019-04-01T21:37:19.795Z,0
2019-04-01T21:38:31.871Z,0
2019-04-01T21:43:20.721Z,0
2019-04-01T21:44:32.831Z,0
2019-04-01T21:45:45.061Z,0
2019-04-01T21:46:57.424Z,0
2019-04-01T21:48:09.539Z,0
2019-04-01T21:49:21.616Z,0
2019-04-01T21:50:33.802Z,0
2019-04-01T21:51:46.140Z,0
2019-04-01T21:52:58.225Z,0
2019-04-01T21:54:10.472Z,0
2019-04-01T21:55:22.722Z,0
2019-04-01T21:56:34.789Z,0
2019-04-01T21:57:47.113Z,0
2019-04-01T21:58:59.220Z,0
2019-04-01T22:00:11.353Z,0
2019-04-01T22:02:35.815Z,0
2019-04-01T22:03:47.946Z,0
2019-04-01T22:06:12.516Z,0
2019-04-01T22:07:24.549Z,0
2019-04-01T22:08:36.800Z,0
2019-04-01T22:09:49.008Z,0
2019-04-01T22:11:01.107Z,0
2019-04-01T22:12:13.335Z,0
2019-04-01T22:13:25.691Z,0
2019-04-01T22:14:37.684Z,0
2019-04-01T22:17:02.166Z,0
2019-04-01T22:18:14.289Z,0
2019-04-01T22:19:26.534Z,0
2019-04-01T22:20:38.762Z,0
2019-04-01T22:21:50.964Z,0
2019-04-01T22:23:03.105Z,0
2019-04-01T22:24:15.243Z,0
2019-04-01T22:25:27.473Z,0
2019-04-01T22:26:39.704Z,0
2019-04-01T22:27:51.839Z,0
2019-04-01T22:30:16.209Z,0
2019-04-01T22:31:31.997Z,0
2019-04-01T22:32:40.685Z,0
2019-04-01T22:33:52.839Z,0
2019-04-01T22:36:17.279Z,0
2019-04-01T22:37:29.358Z,0
2019-04-01T22:38:41.696Z,0
2019-04-01T22:39:53.754Z,0
2019-04-01T22:41:05.956Z,0
2019-04-01T22:43:30.422Z,0
2019-04-01T22:45:54.889Z,0
2019-04-01T22:48:19.118Z,0
2019-04-01T22:49:31.356Z,0
2019-04-01T22:50:43.532Z,0
2019-04-01T22:53:07.872Z,0
2019-04-01T22:55:32.354Z,0
2019-04-01T22:56:44.560Z,0
2019-04-01T22:57:56.787Z,0
2019-04-01T22:59:08.853Z,0
2019-04-01T23:00:21.108Z,0
2019-04-01T23:02:45.424Z,0
2019-04-01T23:03:57.783Z,0
2019-04-01T23:06:22.135Z,0
2019-04-01T23:07:34.201Z,0
2019-04-01T23:08:46.409Z,0
2019-04-01T23:09:58.949Z,0
2019-04-01T23:12:23.053Z,0
2019-04-01T23:13:35.284Z,0
2019-04-01T23:14:47.444Z,0
2019-04-01T23:15:59.549Z,0
2019-04-01T23:19:36.151Z,0
2019-04-01T23:22:00.641Z,0
2019-04-01T23:23:12.717Z,0
2019-04-01T23:24:24.917Z,0
2019-04-01T23:25:37.103Z,0
2019-04-01T23:26:49.414Z,0
2019-04-01T23:30:25.872Z,0